Time;durP1;ratioP1;P1;durP2;ratioP2;P2;SDS_P1;SDS_P2;PMS_P1;PMS_P2;Temp;Humidity;BMP_temperature;BMP_pressure;BME280_temperature;BME280_humidity;BME280_pressure;Samples;Min_cycle;Max_cycle;Signal;HPM_P1;HPM_P2
2023/10/14 00:00:47;;;;;;;;;0.00;0.00;;;;;24.46;100.00;100228.09;2105569;27;46764;-56
2023/10/14 00:01:52;;;;;;;;;0.00;0.00;;;;;24.44;100.00;100227.38;2113956;27;46389;-58
2023/10/14 00:02:53;;;;;;;;;1.00;0.00;;;;;24.45;100.00;100239.94;2104504;28;47173;-55
2023/10/14 00:03:55;;;;;;;;;0.00;0.00;;;;;24.45;100.00;100231.81;2097099;28;45904;-57
2023/10/14 00:04:58;;;;;;;;;0.00;0.00;;;;;24.46;100.00;100240.78;2111296;27;46626;-58
2023/10/14 00:06:00;;;;;;;;;0.00;0.00;;;;;24.45;100.00;100239.06;2108329;27;45988;-57
2023/10/14 00:07:07;;;;;;;;;0.00;0.00;;;;;24.44;100.00;100246.34;2114248;27;46848;-57
2023/10/14 00:08:12;;;;;;;;;0.00;0.00;;;;;24.45;100.00;100244.50;2114568;27;46546;-57
2023/10/14 00:09:13;;;;;;;;;0.00;0.00;;;;;24.46;100.00;100248.94;2114677;27;46966;-54
2023/10/14 00:10:13;;;;;;;;;0.00;0.00;;;;;24.45;100.00;100245.38;2111866;27;46600;-58
2023/10/14 00:11:17;;;;;;;;;0.00;0.00;;;;;24.47;100.00;100254.22;2109654;27;46318;-56
2023/10/14 00:12:20;;;;;;;;;0.00;0.00;;;;;24.46;100.00;100259.78;2113915;27;46314;-56
2023/10/14 00:13:20;;;;;;;;;0.00;0.00;;;;;24.44;100.00;100267.19;2114464;27;46692;-56
2023/10/14 00:14:23;;;;;;;;;0.00;0.00;;;;;24.45;100.00;100277.06;2114214;27;46288;-57
2023/10/14 00:15:23;;;;;;;;;0.00;0.00;;;;;24.44;100.00;100278.91;2114519;27;46841;-54
2023/10/14 00:17:34;;;;;;;;;0.00;0.00;;;;;24.45;100.00;100290.63;2120911;27;46269;-57
2023/10/14 00:18:35;;;;;;;;;0.00;0.00;;;;;24.46;100.00;100287.75;2105530;28;46474;-57
2023/10/14 00:19:36;;;;;;;;;0.00;0.00;;;;;24.44;100.00;100284.34;2106779;27;46845;-56
2023/10/14 00:20:36;;;;;;;;;0.00;0.00;;;;;24.46;100.00;100295.91;2114067;27;46752;-57
2023/10/14 00:21:37;;;;;;;;;0.00;0.00;;;;;24.48;100.00;100293.06;2114410;27;46553;-56
2023/10/14 00:22:39;;;;;;;;;0.00;0.00;;;;;24.47;100.00;100288.63;2114496;27;45917;-56
2023/10/14 00:23:39;;;;;;;;;0.00;0.00;;;;;24.46;100.00;100293.19;2114342;27;46416;-55
2023/10/14 00:24:40;;;;;;;;;0.00;0.00;;;;;24.45;100.00;100298.75;2114430;27;46935;-57
2023/10/14 00:25:40;;;;;;;;;0.00;0.00;;;;;24.44;100.00;100299.75;2114268;27;46478;-56
2023/10/14 00:26:40;;;;;;;;;0.00;0.00;;;;;24.43;100.00;100298.88;2111022;27;46385;-57
2023/10/14 00:27:42;;;;;;;;;0.00;0.00;;;;;24.42;100.00;100301.75;2107464;27;45402;-58
2023/10/14 00:28:50;;;;;;;;;0.00;0.00;;;;;24.41;100.00;100298.16;2112260;27;46557;-57
2023/10/14 00:30:05;;;;;;;;;0.00;0.00;;;;;24.38;100.00;100295.69;2113056;27;46296;-56
2023/10/14 00:31:06;;;;;;;;;0.00;0.00;;;;;24.40;100.00;100303.72;2114120;27;46895;-54
2023/10/14 00:32:07;;;;;;;;;0.00;0.00;;;;;24.38;100.00;100306.53;2104565;28;46678;-57
2023/10/14 00:33:07;;;;;;;;;0.00;0.00;;;;;24.39;100.00;100315.53;2104796;28;46058;-55
2023/10/14 00:34:08;;;;;;;;;0.00;0.00;;;;;24.38;100.00;100306.53;2115089;27;46304;-57
2023/10/14 00:35:10;;;;;;;;;0.00;0.00;;;;;24.38;100.00;100313.81;2120649;27;46693;-56
2023/10/14 00:36:13;;;;;;;;;0.00;0.00;;;;;24.38;100.00;100308.41;2114480;27;46435;-56
2023/10/14 00:37:13;;;;;;;;;0.00;0.00;;;;;24.48;100.00;100314.75;2113866;27;46765;-56
2023/10/14 00:38:15;;;;;;;;;0.00;0.00;;;;;24.51;100.00;100315.34;2114582;27;46802;-57
2023/10/14 00:39:16;;;;;;;;;0.00;0.00;;;;;24.53;100.00;100323.38;2114131;27;46426;-56
2023/10/14 00:40:23;;;;;;;;;0.00;0.00;;;;;24.57;100.00;100327.53;2110927;27;46357;-55
2023/10/14 00:41:27;;;;;;;;;0.00;0.00;;;;;24.57;100.00;100330.25;2111765;27;46883;-56
2023/10/14 00:42:27;;;;;;;;;0.00;0.00;;;;;24.56;100.00;100348.38;2114358;27;47013;-57
2023/10/14 00:43:28;;;;;;;;;0.00;0.00;;;;;24.57;100.00;100341.09;2114054;27;46547;-53
2023/10/14 00:44:28;;;;;;;;;0.00;0.00;;;;;24.58;100.00;100348.25;2114277;27;46634;-56
2023/10/14 00:45:29;;;;;;;;;0.00;0.00;;;;;24.56;100.00;100347.53;2114279;27;46220;-57
2023/10/14 00:46:33;;;;;;;;;0.00;0.00;;;;;24.56;100.00;100370.09;2114444;27;46403;-58
2023/10/14 00:47:33;;;;;;;;;0.00;0.00;;;;;24.55;100.00;100367.50;2114048;27;46415;-54
2023/10/14 00:48:34;;;;;;;;;0.00;0.00;;;;;24.53;100.00;100375.78;2114370;27;46159;-56
2023/10/14 00:49:35;;;;;;;;;0.00;0.00;;;;;24.53;100.00;100369.50;2113683;27;46958;-56
2023/10/14 00:50:36;;;;;;;;;0.00;0.00;;;;;24.52;100.00;100371.34;2114472;27;45685;-57
2023/10/14 00:51:42;;;;;;;;;0.00;0.00;;;;;24.50;100.00;100372.44;2114478;27;46619;-54
2023/10/14 00:52:44;;;;;;;;;0.00;0.00;;;;;24.45;100.00;100372.00;2114182;27;46677;-57
2023/10/14 00:53:53;;;;;;;;;0.00;0.00;;;;;24.42;100.00;100367.69;2114164;27;46114;-55
2023/10/14 00:55:56;;;;;;;;;0.00;0.00;;;;;24.41;100.00;100373.25;2114507;27;46486;-55
2023/10/14 00:57:09;;;;;;;;;0.00;0.00;;;;;24.38;100.00;100370.78;2112811;27;46126;-56
2023/10/14 00:58:12;;;;;;;;;0.00;0.00;;;;;24.36;100.00;100373.63;2114197;27;46631;-56
2023/10/14 00:59:14;;;;;;;;;0.00;0.00;;;;;24.34;100.00;100379.19;2114146;27;45084;-56
2023/10/14 01:00:22;;;;;;;;;0.00;0.00;;;;;24.33;100.00;100382.88;2114309;27;46687;-54
2023/10/14 01:01:22;;;;;;;;;0.75;0.75;;;;;24.32;100.00;100377.59;2113156;27;46579;-57
2023/10/14 01:02:31;;;;;;;;;0.00;0.00;;;;;24.31;100.00;100379.44;2114147;27;46357;-57
2023/10/14 01:03:32;;;;;;;;;2.75;0.00;;;;;24.31;100.00;100384.88;2114553;27;46787;-59
2023/10/14 01:04:32;;;;;;;;;0.00;0.00;;;;;24.31;100.00;100384.88;2113967;27;46378;-57
2023/10/14 01:05:35;;;;;;;;;1.33;0.67;;;;;24.30;100.00;100385.88;2110391;27;45830;-59
2023/10/14 01:06:53;;;;;;;;;1.75;1.75;;;;;24.29;100.00;100383.25;2108608;27;47148;-56
2023/10/14 01:07:57;;;;;;;;;0.75;0.75;;;;;24.27;100.00;100391.53;2114015;27;46851;-57
2023/10/14 01:09:10;;;;;;;;;1.75;0.25;;;;;24.26;100.00;100384.34;2114313;27;46208;-55
2023/10/14 01:10:13;;;;;;;;;0.00;0.00;;;;;24.25;100.00;100384.47;2113972;27;46025;-57
2023/10/14 01:11:16;;;;;;;;;0.00;0.00;;;;;24.23;100.00;100394.59;2114050;27;45658;-56
2023/10/14 01:12:16;;;;;;;;;0.00;0.00;;;;;24.20;100.00;100398.44;2114187;27;46365;-54
2023/10/14 01:13:21;;;;;;;;;0.67;0.00;;;;;24.18;100.00;100396.84;2113774;27;46425;-57
2023/10/14 01:14:23;;;;;;;;;0.00;0.00;;;;;24.12;100.00;100395.47;2112462;27;45979;-54
2023/10/14 01:15:29;;;;;;;;;0.00;0.00;;;;;24.11;100.00;100388.34;2105103;27;46546;-57
2023/10/14 01:16:36;;;;;;;;;0.00;0.00;;;;;24.10;100.00;100407.44;2109945;27;46914;-54
2023/10/14 01:17:37;;;;;;;;;0.00;0.00;;;;;24.05;100.00;100415.97;2114160;27;45754;-55
2023/10/14 01:18:41;;;;;;;;;0.00;0.00;;;;;24.03;100.00;100420.66;2114399;27;46410;-57
2023/10/14 01:19:43;;;;;;;;;0.00;0.00;;;;;23.99;100.00;100417.31;2113849;27;46372;-57
2023/10/14 01:20:43;;;;;;;;;0.00;0.00;;;;;23.96;100.00;100425.72;2114072;27;46524;-56
2023/10/14 01:21:46;;;;;;;;;0.00;0.00;;;;;23.94;100.00;100424.13;2113965;27;46746;-57
2023/10/14 01:22:52;;;;;;;;;0.00;0.00;;;;;23.92;100.00;100426.97;2114343;27;45954;-55
2023/10/14 01:23:58;;;;;;;;;0.00;0.00;;;;;23.89;100.00;100421.81;2114085;27;45940;-58
2023/10/14 01:24:58;;;;;;;;;0.00;0.00;;;;;23.87;100.00;100431.03;2105146;27;46581;-56
2023/10/14 01:26:04;;;;;;;;;0.00;0.00;;;;;23.85;100.00;100422.16;2105667;27;46687;-56
2023/10/14 01:27:05;;;;;;;;;0.00;0.00;;;;;23.83;100.00;100419.59;2114390;27;47179;-55
2023/10/14 01:28:11;;;;;;;;;0.00;0.00;;;;;23.83;100.00;100430.41;2114053;27;46480;-55
2023/10/14 01:29:14;;;;;;;;;0.00;0.00;;;;;23.84;100.00;100421.31;2113774;27;46904;-57
2023/10/14 01:30:19;;;;;;;;;0.00;0.00;;;;;23.87;100.00;100433.72;2106452;27;46438;-57
2023/10/14 01:31:42;;;;;;;;;0.00;0.00;;;;;23.87;100.00;100442.72;2110090;27;46526;-56
2023/10/14 01:33:48;;;;;;;;;0.00;0.00;;;;;23.85;100.00;100436.56;2113860;27;46838;-58
2023/10/14 01:34:56;;;;;;;;;0.00;0.00;;;;;23.86;100.00;100438.28;2120697;27;46511;-58
2023/10/14 01:35:59;;;;;;;;;0.00;0.00;;;;;23.85;100.00;100446.56;2119262;27;46299;-58
2023/10/14 01:37:12;;;;;;;;;0.00;0.00;;;;;23.84;100.00;100445.69;2114057;27;46801;-58
2023/10/14 01:38:13;;;;;;;;;0.00;0.00;;;;;23.81;100.00;100459.50;2113812;27;46667;-58
2023/10/14 01:39:21;;;;;;;;;0.00;0.00;;;;;23.76;100.00;100446.34;2113679;27;46354;-58
2023/10/14 01:41:25;;;;;;;;;0.00;0.00;;;;;23.77;100.00;100460.75;2105244;28;46690;-58
2023/10/14 01:42:29;;;;;;;;;0.00;0.00;;;;;23.76;100.00;100470.72;2086591;28;45209;-58
2023/10/14 01:43:30;;;;;;;;;0.00;0.00;;;;;23.76;100.00;100469.84;2088368;28;46305;-58
2023/10/14 01:44:31;;;;;;;;;0.00;0.00;;;;;23.75;100.00;100465.41;2105241;28;46609;-57
2023/10/14 01:45:39;;;;;;;;;0.00;0.00;;;;;23.74;100.00;100471.81;2112002;27;46244;-58
2023/10/14 01:46:41;;;;;;;;;0.00;0.00;;;;;23.70;100.00;100481.19;2113916;27;46634;-57
2023/10/14 01:47:49;;;;;;;;;0.00;0.00;;;;;23.71;100.00;100488.31;2114069;27;46059;-56
2023/10/14 01:48:52;;;;;;;;;0.00;0.00;;;;;23.71;100.00;100491.88;2112275;27;46765;-56
2023/10/14 01:49:53;;;;;;;;;1.00;0.00;;;;;23.70;100.00;100503.72;2114058;27;46460;-55
2023/10/14 01:50:55;;;;;;;;;0.00;0.00;;;;;23.69;100.00;100493.00;2113543;27;46421;-57
2023/10/14 01:51:57;;;;;;;;;0.00;0.00;;;;;23.66;100.00;100496.81;2113908;27;46528;-56
2023/10/14 01:53:08;;;;;;;;;0.00;0.00;;;;;23.66;100.00;100496.81;2113869;27;46824;-56
2023/10/14 01:54:10;;;;;;;;;0.50;0.00;;;;;23.66;100.00;100504.94;2113934;27;46388;-57
2023/10/14 01:55:10;;;;;;;;;0.25;0.00;;;;;23.66;100.00;100523.06;2114010;27;46354;-56
2023/10/14 01:56:10;;;;;;;;;0.00;0.00;;;;;23.63;100.00;100526.88;2113978;27;46233;-55
2023/10/14 01:57:15;;;;;;;;;0.00;0.00;;;;;23.61;100.00;100519.81;2113583;27;46102;-55
2023/10/14 01:58:32;;;;;;;;;0.00;0.00;;;;;23.56;100.00;100524.72;2113205;27;46282;-57
2023/10/14 01:59:34;;;;;;;;;0.00;0.00;;;;;23.53;100.00;100528.53;2113408;27;46572;-57
2023/10/14 02:00:46;;;;;;;;;1.00;1.00;;;;;23.48;100.00;100533.44;2113882;27;46603;-57
2023/10/14 02:01:47;;;;;;;;;0.00;0.00;;;;;23.46;100.00;100536.28;2105564;28;46353;-57
2023/10/14 02:02:48;;;;;;;;;0.00;0.00;;;;;23.44;100.00;100542.81;2114839;27;46821;-58
2023/10/14 02:03:49;;;;;;;;;0.00;0.00;;;;;23.42;100.00;100548.34;2115046;27;46488;-55
2023/10/14 02:04:56;;;;;;;;;0.50;0.50;;;;;23.39;100.00;100545.88;2104071;28;46492;-54
2023/10/14 02:05:57;;;;;;;;;0.25;0.25;;;;;23.36;100.00;100548.81;2095826;28;46692;-57
2023/10/14 02:08:21;;;;;;;;;0.00;0.00;;;;;23.30;100.00;100557.41;2087735;28;46340;-58
2023/10/14 02:09:21;;;;;;;;;0.00;0.00;;;;;23.27;100.00;100562.22;2091547;28;46825;-57
2023/10/14 02:10:22;;;;;;;;;0.00;0.00;;;;;23.26;100.00;100574.03;2087989;28;47291;-57
2023/10/14 02:11:32;;;;;;;;;0.00;0.00;;;;;23.26;100.00;100571.31;2096253;28;46531;-58
2023/10/14 02:12:35;;;;;;;;;0.25;0.00;;;;;23.24;100.00;100582.25;2103960;27;46595;-58
2023/10/14 02:13:36;;;;;;;;;0.00;0.00;;;;;23.25;100.00;100591.22;2104472;28;46908;-57
2023/10/14 02:14:40;;;;;;;;;0.00;0.00;;;;;23.24;100.00;100586.78;2095480;28;46377;-58
2023/10/14 02:15:40;;;;;;;;;2.00;0.00;;;;;23.17;100.00;100592.69;2096543;28;45685;-56
2023/10/14 02:16:44;;;;;;;;;0.00;0.00;;;;;23.15;100.00;100601.91;2104216;28;46284;-58
2023/10/14 02:17:47;;;;;;;;;0.00;0.00;;;;;23.12;100.00;100600.31;2104503;28;46791;-57
2023/10/14 02:18:48;;;;;;;;;0.00;0.00;;;;;23.13;100.00;100602.03;2104540;28;46993;-57
2023/10/14 02:19:50;;;;;;;;;5.33;3.00;;;;;23.11;100.00;100606.69;2103733;28;46399;-56
2023/10/14 02:20:56;;;;;;;;;10.75;9.00;;;;;23.11;100.00;100612.09;2092430;28;47284;-55
2023/10/14 02:22:02;;;;;;;;;24.40;23.40;;;;;23.07;100.00;100604.31;2095475;28;46878;-57
2023/10/14 02:23:03;;;;;;;;;17.20;15.20;;;;;23.05;100.00;100609.84;2093071;28;46899;-57
2023/10/14 02:24:10;;;;;;;;;7.00;6.75;;;;;23.03;100.00;100613.66;2104129;28;46381;-58
2023/10/14 02:25:15;;;;;;;;;7.00;6.75;;;;;23.01;100.00;100610.22;2104214;28;47007;-57
2023/10/14 02:26:16;;;;;;;;;4.50;2.00;;;;;23.00;100.00;100617.47;2104243;28;46456;-55
2023/10/14 02:27:17;;;;;;;;;5.50;2.25;;;;;22.97;100.00;100624.94;2104372;28;46812;-58
2023/10/14 02:28:17;;;;;;;;;0.00;0.00;;;;;22.92;100.00;100606.34;2104034;28;46599;-57
2023/10/14 02:29:18;;;;;;;;;2.67;1.00;;;;;22.89;100.00;100614.69;2103788;28;46602;-58
2023/10/14 02:30:18;;;;;;;;;1.00;1.00;;;;;22.86;100.00;100613.06;2102943;28;46842;-59
2023/10/14 02:31:29;;;;;;;;;1.00;1.00;;;;;22.85;100.00;100618.59;2104075;28;46766;-58
2023/10/14 02:32:29;;;;;;;;;1.75;1.75;;;;;22.83;100.00;100621.41;2104112;28;46709;-57
2023/10/14 02:33:30;;;;;;;;;2.67;0.67;;;;;22.83;100.00;100621.41;2104072;28;46271;-57
2023/10/14 02:34:30;;;;;;;;;0.00;0.00;;;;;22.83;100.00;100617.84;2102063;28;46566;-57
2023/10/14 02:35:33;;;;;;;;;1.33;0.33;;;;;22.82;100.00;100625.06;2095893;28;46759;-57
2023/10/14 02:36:42;;;;;;;;;0.25;0.25;;;;;22.81;100.00;100628.75;2104916;27;47090;-58
2023/10/14 02:37:42;;;;;;;;;0.00;0.00;;;;;22.77;100.00;100627.25;2113600;27;46653;-55
2023/10/14 02:38:53;;;;;;;;;0.00;0.00;;;;;22.78;100.00;100628.13;2105645;27;46600;-56
2023/10/14 02:39:53;;;;;;;;;0.25;0.00;;;;;22.77;100.00;100623.69;2103808;28;46936;-55
2023/10/14 02:40:53;;;;;;;;;0.00;0.00;;;;;22.75;100.00;100618.41;2105051;27;46665;-56
2023/10/14 02:42:08;;;;;;;;;0.00;0.00;;;;;22.73;100.00;100620.34;2113650;27;46739;-59
2023/10/14 02:43:08;;;;;;;;;0.25;0.00;;;;;22.68;100.00;100625.22;2113775;27;46344;-58
2023/10/14 02:45:12;;;;;;;;;0.00;0.00;;;;;22.70;100.00;100625.13;2113081;27;47016;-57
2023/10/14 02:46:19;;;;;;;;;0.25;0.00;;;;;22.69;100.00;100618.84;2104429;28;46376;-58
2023/10/14 02:47:20;;;;;;;;;2.25;0.00;;;;;22.68;100.00;100618.97;2105338;27;46460;-58
2023/10/14 02:48:20;;;;;;;;;0.00;0.00;;;;;22.66;100.00;100615.50;2113800;27;46450;-59
2023/10/14 02:49:25;;;;;;;;;0.00;0.00;;;;;22.66;100.00;100612.81;2113734;27;46890;-58
2023/10/14 02:50:25;;;;;;;;;0.00;0.00;;;;;22.66;100.00;100619.06;2113305;27;46752;-59
2023/10/14 02:51:43;;;;;;;;;0.00;0.00;;;;;22.67;100.00;100614.53;2113460;27;46846;-57
2023/10/14 02:52:49;;;;;;;;;0.00;0.00;;;;;22.66;100.00;100619.06;2104080;28;46797;-59
2023/10/14 02:53:49;;;;;;;;;0.50;0.00;;;;;22.64;100.00;100628.28;2103745;27;46378;-58
2023/10/14 02:55:18;;;;;;;;;0.00;0.00;;;;;22.58;100.00;100630.44;2114181;27;46265;-56
2023/10/14 02:56:21;;;;;;;;;1.50;0.00;;;;;22.54;100.00;100628.94;2114545;27;46572;-57
2023/10/14 02:58:22;;;;;;;;;0.00;0.00;;;;;22.46;100.00;100634.03;2108332;27;46229;-56
2023/10/14 03:00:43;;;;;;;;;0.00;0.00;;;;;22.42;100.00;100637.09;2104416;28;46736;-57
2023/10/14 03:01:44;;;;;;;;;0.00;0.00;;;;;22.40;100.00;100637.19;2104005;28;46510;-57
2023/10/14 03:03:02;;;;;;;;;1.50;1.50;;;;;22.40;100.00;100633.63;2103858;28;46317;-57
2023/10/14 03:04:07;;;;;;;;;2.00;0.00;;;;;22.34;100.00;100645.75;2095596;28;46655;-57
2023/10/14 03:05:12;;;;;;;;;0.25;0.00;;;;;22.32;100.00;100643.16;2094853;28;46423;-57
2023/10/14 03:06:14;;;;;;;;;0.25;0.25;;;;;22.30;100.00;100647.81;2092716;28;46998;-57
2023/10/14 03:07:27;;;;;;;;;0.75;0.00;;;;;22.30;100.00;100650.50;2098007;28;46517;-57
2023/10/14 03:08:28;;;;;;;;;0.75;0.00;;;;;22.30;100.00;100661.31;2103906;28;46577;-56
2023/10/14 03:09:33;;;;;;;;;0.25;0.00;;;;;22.28;100.00;100657.88;2103555;28;46549;-57
2023/10/14 03:10:37;;;;;;;;;1.00;0.25;;;;;22.27;100.00;100666.97;2103858;28;47020;-57
2023/10/14 03:11:39;;;;;;;;;1.00;1.00;;;;;22.24;100.00;100669.03;2092717;28;46314;-56
2023/10/14 03:12:39;;;;;;;;;0.00;0.00;;;;;22.23;100.00;100672.66;2095397;28;46483;-58
2023/10/14 03:13:41;;;;;;;;;0.00;0.00;;;;;22.18;100.00;100670.31;2095445;28;46572;-57
2023/10/14 03:14:42;;;;;;;;;2.00;0.25;;;;;22.15;100.00;100670.53;2103352;28;47114;-53
2023/10/14 03:15:47;;;;;;;;;1.00;1.00;;;;;22.17;100.00;100673.13;2103861;28;46294;-57
2023/10/14 03:16:51;;;;;;;;;0.00;0.00;;;;;22.17;100.00;100670.41;2104059;28;46757;-57
2023/10/14 03:17:56;;;;;;;;;1.00;0.00;;;;;22.18;100.00;100677.56;2094793;28;46234;-56
2023/10/14 03:18:56;;;;;;;;;0.75;0.75;;;;;22.17;100.00;100673.13;2096153;28;46611;-57
2023/10/14 03:20:06;;;;;;;;;0.67;0.67;;;;;22.20;100.00;100687.28;2104152;28;46453;-56
2023/10/14 03:21:21;;;;;;;;;1.75;0.00;;;;;22.19;100.00;100681.97;2103956;28;46987;-58
2023/10/14 03:22:27;;;;;;;;;0.00;0.00;;;;;22.18;100.00;100682.97;2103511;28;47255;-57
2023/10/14 03:23:28;;;;;;;;;0.00;0.00;;;;;22.19;100.00;100685.53;2104002;28;46851;-56
2023/10/14 03:24:32;;;;;;;;;0.00;0.00;;;;;22.17;100.00;100684.78;2104545;28;46428;-54
2023/10/14 03:25:35;;;;;;;;;0.00;0.00;;;;;22.16;100.00;100684.91;2105794;28;46078;-57
2023/10/14 03:26:36;;;;;;;;;2.00;0.25;;;;;22.15;100.00;100686.75;2104879;28;46602;-57
2023/10/14 03:27:39;;;;;;;;;0.50;0.50;;;;;22.14;100.00;100687.72;2104057;27;46571;-57
2023/10/14 03:28:44;;;;;;;;;0.75;0.00;;;;;22.14;100.00;100679.63;2105160;28;46403;-58
2023/10/14 03:29:54;;;;;;;;;0.00;0.00;;;;;22.11;100.00;100679.84;2105115;27;46435;-58
2023/10/14 03:30:56;;;;;;;;;0.50;0.50;;;;;22.08;100.00;100684.56;2103851;28;46742;-58
2023/10/14 03:31:56;;;;;;;;;0.00;0.00;;;;;22.06;100.00;100689.22;2108021;27;46531;-54
2023/10/14 03:32:57;;;;;;;;;0.00;0.00;;;;;22.05;100.00;100701.84;2114995;27;46264;-56
2023/10/14 03:33:58;;;;;;;;;0.33;0.00;;;;;22.02;100.00;100693.94;2114111;27;46478;-57
2023/10/14 03:35:06;;;;;;;;;0.50;0.50;;;;;22.00;100.00;100699.47;2106218;27;46692;-58
2023/10/14 03:36:16;;;;;;;;;1.25;1.25;;;;;22.00;100.00;100699.47;2109701;27;46704;-58
2023/10/14 03:37:25;;;;;;;;;1.75;1.00;;;;;22.01;100.00;100711.13;2114511;27;46310;-57
2023/10/14 03:38:25;;;;;;;;;0.00;0.00;;;;;22.00;100.00;100712.13;2114897;27;47044;-57
2023/10/14 03:39:40;;;;;;;;;2.00;2.00;;;;;22.03;100.00;100709.19;2114476;27;46044;-59
2023/10/14 03:41:52;;;;;;;;;0.00;0.00;;;;;21.98;100.00;100708.66;2098348;28;46763;-58
2023/10/14 03:42:54;;;;;;;;;1.75;0.25;;;;;21.96;100.00;100714.13;2110290;27;46980;-58
2023/10/14 03:44:58;;;;;;;;;3.25;2.25;;;;;21.92;100.00;100712.63;2106128;28;46580;-56
2023/10/14 03:46:09;;;;;;;;;3.33;1.33;;;;;21.93;100.00;100717.06;2110269;27;46642;-58
2023/10/14 03:47:16;;;;;;;;;0.75;0.75;;;;;21.90;100.00;100716.41;2114097;27;46657;-57
2023/10/14 03:48:16;;;;;;;;;2.25;0.50;;;;;21.90;100.00;100717.28;2114714;27;46459;-57
2023/10/14 03:49:25;;;;;;;;;1.00;0.00;;;;;21.93;100.00;100722.47;2114342;27;46182;-57
2023/10/14 03:50:26;;;;;;;;;0.00;0.00;;;;;21.92;100.00;100718.03;2115299;27;46491;-58
2023/10/14 03:51:30;;;;;;;;;1.00;0.00;;;;;21.92;100.00;100722.56;2114278;27;46239;-58
2023/10/14 03:52:31;;;;;;;;;1.75;0.00;;;;;21.92;100.00;100722.56;2114666;27;46281;-56
2023/10/14 03:53:32;;;;;;;;;1.50;0.00;;;;;21.91;100.00;100719.00;2114918;27;46116;-57
2023/10/14 03:54:41;;;;;;;;;1.33;0.33;;;;;21.90;100.00;100713.72;2114536;27;46282;-58
2023/10/14 03:55:42;;;;;;;;;0.00;0.00;;;;;21.90;100.00;100719.13;2088005;28;46857;-58
2023/10/14 03:56:45;;;;;;;;;0.00;0.00;;;;;21.90;100.00;100719.13;2092375;27;46532;-57
2023/10/14 03:57:46;;;;;;;;;0.75;0.25;;;;;21.88;100.00;100716.53;2114587;27;47121;-57
2023/10/14 03:58:46;;;;;;;;;1.00;1.00;;;;;21.86;100.00;100717.59;2114656;27;46628;-58
2023/10/14 03:59:48;;;;;;;;;0.00;0.00;;;;;21.85;100.00;100721.25;2114269;27;46192;-57
2023/10/14 04:00:50;;;;;;;;;0.75;0.50;;;;;21.84;100.00;100724.94;2114181;27;46852;-57
2023/10/14 04:01:57;;;;;;;;;0.00;0.00;;;;;21.84;100.00;100722.22;2112932;27;46202;-57
2023/10/14 04:02:58;;;;;;;;;1.00;0.00;;;;;21.82;100.00;100730.44;2106165;28;46858;-58
2023/10/14 04:04:01;;;;;;;;;0.50;0.00;;;;;21.81;100.00;100735.94;2114391;27;46917;-56
2023/10/14 04:05:09;;;;;;;;;3.00;0.00;;;;;21.79;100.00;100729.78;2105053;28;46517;-58
2023/10/14 04:06:14;;;;;;;;;0.00;0.00;;;;;21.77;100.00;100734.44;2085695;28;47161;-56
2023/10/14 04:07:15;;;;;;;;;0.25;0.25;;;;;21.75;100.00;100737.25;2100085;27;46941;-57
2023/10/14 04:08:16;;;;;;;;;0.00;0.00;;;;;21.76;100.00;100736.28;2114330;27;46570;-56
2023/10/14 04:09:24;;;;;;;;;1.00;1.00;;;;;21.74;100.00;100741.78;2114616;27;46369;-55
2023/10/14 04:10:24;;;;;;;;;0.75;0.75;;;;;21.74;100.00;100746.31;2115048;27;45714;-57
2023/10/14 04:11:28;;;;;;;;;1.67;0.00;;;;;21.75;100.00;100748.06;2117979;27;46464;-56
2023/10/14 04:12:40;;;;;;;;;2.50;0.75;;;;;21.74;100.00;100746.31;2113864;27;47675;-57
2023/10/14 04:13:50;;;;;;;;;3.00;1.00;;;;;21.75;100.00;100753.44;2115031;27;46642;-55
2023/10/14 04:14:54;;;;;;;;;0.25;0.00;;;;;21.75;100.00;100753.44;2110276;27;46927;-55
2023/10/14 04:15:58;;;;;;;;;1.75;1.75;;;;;21.75;100.00;100742.66;2114065;27;46803;-54
2023/10/14 04:18:24;;;;;;;;;0.00;0.00;;;;;21.75;100.00;100756.16;2115305;27;46839;-56
2023/10/14 04:19:27;;;;;;;;;0.50;0.00;;;;;21.73;100.00;100748.16;2105971;28;46951;-57
2023/10/14 04:20:33;;;;;;;;;1.75;1.75;;;;;21.71;100.00;100755.47;2101946;28;46574;-56
2023/10/14 04:21:36;;;;;;;;;0.25;0.25;;;;;21.69;100.00;100759.25;2105820;27;46277;-59
2023/10/14 04:23:59;;;;;;;;;0.00;0.00;;;;;21.66;100.00;100762.16;2118675;27;46556;-56
2023/10/14 04:26:34;;;;;;;;;0.00;0.00;;;;;21.64;100.00;100764.97;2079724;28;46657;-56
2023/10/14 04:27:36;;;;;;;;;2.00;1.00;;;;;21.62;100.00;100764.22;2079679;28;46930;-57
2023/10/14 04:28:53;;;;;;;;;0.00;0.00;;;;;21.60;100.00;100768.00;2074580;28;46224;-56
2023/10/14 04:30:03;;;;;;;;;3.50;3.00;;;;;21.58;100.00;100768.06;2076443;28;46642;-55
2023/10/14 04:31:16;;;;;;;;;0.75;0.75;;;;;21.53;100.00;100775.63;2071658;28;46421;-58
2023/10/14 04:32:41;;;;;;;;;0.00;0.00;;;;;21.53;100.00;100774.75;2079786;28;46764;-55
2023/10/14 04:33:45;;;;;;;;;3.00;0.00;;;;;21.53;100.00;100774.75;2073225;28;46578;-56
2023/10/14 04:34:46;;;;;;;;;1.00;1.00;;;;;21.53;100.00;100777.47;2073041;28;46370;-59
2023/10/14 04:37:08;;;;;;;;;0.75;0.75;;;;;21.51;100.00;100785.66;2065790;28;46518;-58
2023/10/14 04:38:16;;;;;;;;;0.50;0.50;;;;;21.50;100.00;100780.38;2072760;28;45730;-57
2023/10/14 04:39:25;;;;;;;;;1.00;1.00;;;;;21.50;100.00;100780.38;2071782;28;46999;-56
2023/10/14 04:41:36;;;;;;;;;0.00;0.00;;;;;21.47;100.00;100776.03;2075174;28;46933;-56
2023/10/14 04:42:42;;;;;;;;;1.50;1.50;;;;;21.45;100.00;100775.25;2072354;28;46539;-57
2023/10/14 04:44:56;;;;;;;;;0.00;0.00;;;;;21.44;100.00;100790.59;2079413;28;46910;-54
2023/10/14 04:46:16;;;;;;;;;2.25;1.25;;;;;21.42;100.00;100784.44;2079221;28;46912;-58
2023/10/14 04:47:19;;;;;;;;;0.25;0.00;;;;;21.41;100.00;100781.84;2079702;28;46979;-57
2023/10/14 04:48:28;;;;;;;;;1.25;1.25;;;;;21.40;100.00;100786.38;2071596;28;46734;-57
2023/10/14 04:49:38;;;;;;;;;1.00;1.00;;;;;21.40;100.00;100785.50;2072975;28;46392;-58
2023/10/14 04:50:41;;;;;;;;;1.00;1.00;;;;;21.41;100.00;100789.94;2080230;28;47004;-55
2023/10/14 04:51:47;;;;;;;;;0.75;0.75;;;;;21.41;100.00;100798.03;2079931;28;46879;-56
2023/10/14 04:52:50;;;;;;;;;3.50;0.00;;;;;21.38;100.00;100796.41;2075770;28;46924;-55
2023/10/14 04:53:50;;;;;;;;;0.50;0.00;;;;;21.35;100.00;100793.91;2077858;28;46773;-56
2023/10/14 04:55:08;;;;;;;;;0.67;0.00;;;;;21.30;100.00;100790.63;2079676;28;46787;-56
2023/10/14 04:56:09;;;;;;;;;0.50;0.50;;;;;21.28;100.00;100795.25;2075565;28;46583;-56
2023/10/14 04:57:20;;;;;;;;;2.25;0.00;;;;;21.27;100.00;100798.06;2071404;28;47060;-56
2023/10/14 04:58:25;;;;;;;;;0.00;0.00;;;;;21.25;100.00;100803.56;2071571;28;46433;-54
2023/10/14 04:59:28;;;;;;;;;0.75;0.75;;;;;21.29;100.00;100806.94;2076699;28;46493;-58
2023/10/14 05:00:32;;;;;;;;;2.00;0.25;;;;;21.25;100.00;100808.97;2079472;28;46754;-56
2023/10/14 05:01:33;;;;;;;;;0.00;0.00;;;;;21.27;100.00;100811.56;2079783;28;46729;-55
2023/10/14 05:02:37;;;;;;;;;0.00;0.00;;;;;21.27;100.00;100812.44;2062979;28;46482;-57
2023/10/14 05:03:38;;;;;;;;;0.50;0.50;;;;;21.25;100.00;100817.06;2076387;28;47053;-56
2023/10/14 05:04:41;;;;;;;;;1.67;1.00;;;;;21.23;100.00;100818.97;2087467;28;46605;-56
2023/10/14 05:07:12;;;;;;;;;0.00;0.00;;;;;21.20;100.00;100815.56;2079542;28;46482;-55
2023/10/14 05:08:16;;;;;;;;;0.33;0.33;;;;;21.22;100.00;100811.84;2075810;28;46153;-55
2023/10/14 05:09:29;;;;;;;;;0.00;0.00;;;;;21.22;100.00;100829.88;2071797;28;46558;-56
2023/10/14 05:10:29;;;;;;;;;1.00;1.00;;;;;21.21;100.00;100814.59;2072301;28;46857;-55
2023/10/14 05:11:35;;;;;;;;;0.00;0.00;;;;;21.24;100.00;100820.69;2079891;28;46481;-56
2023/10/14 05:12:51;;;;;;;;;1.50;1.50;;;;;21.23;100.00;100812.72;2079312;28;46405;-57
2023/10/14 05:14:08;;;;;;;;;0.00;0.00;;;;;21.22;100.00;100817.25;2079389;28;47156;-53
2023/10/14 05:15:19;;;;;;;;;1.00;1.00;;;;;21.20;100.00;100813.75;2079871;28;47052;-53
2023/10/14 05:16:22;;;;;;;;;1.00;1.00;;;;;21.21;100.00;100814.59;2079359;28;46952;-58